Time;durP1;ratioP1;P1;durP2;ratioP2;P2;SDS_P1;SDS_P2;PMS_P1;PMS_P2;Temp;Humidity;BMP_temperature;BMP_pressure;BME280_temperature;BME280_humidity;BME280_pressure;Samples;Min_cycle;Max_cycle;Signal;HPM_P1;HPM_P2
2022/06/09 00:01:27;;;;;;;78.00;37.92;;;16.00;99.90;;;;;;10412235;28;20029;-84
2022/06/09 00:06:37;;;;;;;70.95;39.17;;;16.00;99.90;;;;;;10421693;28;20052;-85
2022/06/09 00:11:41;;;;;;;76.80;39.10;;;16.00;99.90;;;;;;10411450;28;20056;-85
2022/06/09 00:16:43;;;;;;;74.40;37.65;;;16.00;99.90;;;;;;10407327;28;20037;-87
2022/06/09 00:21:43;;;;;;;83.97;40.67;;;16.00;99.90;;;;;;10410049;28;20085;-86
2022/06/09 00:26:44;;;;;;;84.15;42.67;;;16.00;99.90;;;;;;10406882;28;20132;-84
2022/06/09 00:31:45;;;;;;;84.80;43.67;;;16.00;99.90;;;;;;10414604;28;20475;-84
2022/06/09 00:36:45;;;;;;;74.28;38.97;;;16.00;99.90;;;;;;10419868;28;20476;-84
2022/06/09 00:41:46;;;;;;;81.53;41.85;;;16.10;99.90;;;;;;10409208;28;20037;-84
2022/06/09 00:46:57;;;;;;;97.57;45.78;;;16.10;99.90;;;;;;10407309;28;20033;-83
2022/06/09 00:52:01;;;;;;;112.95;51.35;;;16.20;99.90;;;;;;10403400;28;20026;-85
2022/06/09 00:57:02;;;;;;;109.53;51.05;;;16.20;99.90;;;;;;10414505;28;20079;-85
2022/06/09 01:02:08;;;;;;;128.60;55.25;;;16.30;99.90;;;;;;10410360;28;20083;-86
2022/06/09 01:07:11;;;;;;;110.80;51.38;;;16.30;99.90;;;;;;10407937;28;20032;-85
2022/06/09 01:12:31;;;;;;;112.50;49.33;;;16.30;99.90;;;;;;10393034;28;20036;-86
2022/06/09 01:18:03;;;;;;;103.18;51.05;;;16.30;99.90;;;;;;10407561;28;20026;-85
2022/06/09 01:23:41;;;;;;;90.78;44.90;;;16.30;99.90;;;;;;10406366;28;20516;-85
2022/06/09 01:29:07;;;;;;;83.75;44.20;;;16.30;99.90;;;;;;10407699;28;20029;-87
2022/06/09 01:34:29;;;;;;;124.28;51.42;;;16.40;99.90;;;;;;10410644;28;20634;-85
2022/06/09 01:39:46;;;;;;;99.85;45.88;;;16.40;99.90;;;;;;10407512;28;20041;-87
2022/06/09 01:44:48;;;;;;;98.22;43.50;;;16.40;99.90;;;;;;10412256;28;20034;-89
2022/06/09 01:49:54;;;;;;;89.55;42.70;;;16.30;99.90;;;;;;10413773;28;20124;-86
2022/06/09 01:54:56;;;;;;;114.90;47.03;;;16.20;99.90;;;;;;10403262;28;20037;-86
2022/06/09 02:00:10;;;;;;;121.75;48.50;;;16.10;99.90;;;;;;10408618;28;20040;-88
2022/06/09 02:05:16;;;;;;;122.65;51.42;;;16.10;99.90;;;;;;10403458;28;20119;-89
2022/06/09 02:10:36;;;;;;;119.43;51.03;;;16.10;99.90;;;;;;10394537;28;20052;-87
2022/06/09 02:15:41;;;;;;;75.90;36.63;;;16.00;99.90;;;;;;10393514;28;20029;-88
2022/06/09 02:20:55;;;;;;;112.73;46.37;;;16.00;99.90;;;;;;10415571;28;20088;-88
2022/06/09 02:25:55;;;;;;;97.03;41.90;;;16.00;99.90;;;;;;10406864;28;20144;-88
2022/06/09 02:30:56;;;;;;;95.32;40.63;;;15.90;99.90;;;;;;10412226;28;20026;-88
2022/06/09 02:35:57;;;;;;;71.03;35.03;;;15.90;99.90;;;;;;10427365;28;20045;-87
2022/06/09 02:40:58;;;;;;;79.47;36.10;;;15.80;99.90;;;;;;10412827;28;20072;-87
2022/06/09 02:45:59;;;;;;;65.45;31.27;;;15.70;99.90;;;;;;10419054;28;20124;-90
2022/06/09 02:51:27;;;;;;;74.32;31.45;;;15.70;99.90;;;;;;10411506;28;20064;-92
2022/06/09 02:56:28;;;;;;;87.07;34.85;;;15.60;99.90;;;;;;10384188;28;20040;-88
2022/06/09 03:01:29;;;;;;;77.78;34.25;;;15.60;99.90;;;;;;10413829;28;20080;-88
2022/06/09 03:06:29;;;;;;;71.13;32.58;;;15.60;99.90;;;;;;10425161;28;20041;-89
2022/06/09 03:11:30;;;;;;;54.03;26.30;;;15.60;99.90;;;;;;10414735;28;20025;-90
2022/06/09 03:16:31;;;;;;;47.28;24.88;;;15.60;99.90;;;;;;10409905;28;20037;-89
2022/06/09 03:21:31;;;;;;;44.33;23.80;;;15.60;99.90;;;;;;10410039;28;20493;-87
2022/06/09 03:26:32;;;;;;;38.35;22.05;;;15.50;99.90;;;;;;10412362;28;20038;-87
2022/06/09 03:31:33;;;;;;;36.08;19.42;;;15.60;99.90;;;;;;10412583;28;20086;-89
2022/06/09 03:36:34;;;;;;;38.80;19.98;;;15.50;99.90;;;;;;10419732;28;20778;-89
2022/06/09 03:41:34;;;;;;;37.00;20.23;;;15.50;99.90;;;;;;10401294;28;20459;-88
2022/06/09 03:46:35;;;;;;;36.45;19.08;;;15.50;99.90;;;;;;10410113;28;20051;-86
2022/06/09 03:51:35;;;;;;;65.55;24.70;;;15.50;99.90;;;;;;10409696;28;20079;-88
2022/06/09 03:56:36;;;;;;;36.05;18.75;;;15.60;99.90;;;;;;10413049;28;20032;-87
2022/06/09 04:01:37;;;;;;;49.50;21.55;;;15.60;99.90;;;;;;10412850;28;20029;-88
2022/06/09 04:06:39;;;;;;;39.15;19.40;;;15.70;99.90;;;;;;10414147;28;20052;-87
2022/06/09 04:11:39;;;;;;;33.17;18.00;;;15.70;99.90;;;;;;10411284;28;20045;-86
2022/06/09 04:16:45;;;;;;;35.33;18.42;;;15.80;99.90;;;;;;10408257;28;20037;-86
2022/06/09 04:21:46;;;;;;;37.15;19.48;;;15.90;99.90;;;;;;10462608;23;20060;-86
2022/06/09 04:26:47;;;;;;;29.45;16.73;;;16.00;99.90;;;;;;10473255;28;20086;-85
2022/06/09 04:31:47;;;;;;;31.45;17.65;;;16.10;99.90;;;;;;10484212;28;20032;-87
2022/06/09 04:36:48;;;;;;;24.27;14.98;;;16.30;99.90;;;;;;10491275;28;20360;-87
2022/06/09 04:41:49;;;;;;;18.92;12.98;;;16.40;99.90;;;;;;10468723;28;20033;-85
2022/06/09 04:46:49;;;;;;;25.23;15.40;;;16.40;99.90;;;;;;10457783;28;20488;-85
2022/06/09 04:51:50;;;;;;;20.90;14.10;;;16.50;99.90;;;;;;10467191;28;20020;-85
2022/06/09 04:56:50;;;;;;;30.23;15.73;;;16.70;99.90;;;;;;10489795;28;20039;-87
2022/06/09 05:01:51;;;;;;;24.80;14.07;;;16.90;99.90;;;;;;10465453;28;20024;-87
2022/06/09 05:06:52;;;;;;;22.10;13.52;;;17.10;99.90;;;;;;10461998;28;20166;-88
2022/06/09 05:11:53;;;;;;;25.42;14.32;;;17.20;99.90;;;;;;10450629;28;20036;-85
2022/06/09 05:16:53;;;;;;;20.98;13.52;;;17.20;99.90;;;;;;10472337;28;20040;-87
2022/06/09 05:21:54;;;;;;;18.33;12.52;;;17.40;99.90;;;;;;10452413;28;20063;-85
2022/06/09 05:26:55;;;;;;;16.83;11.35;;;17.50;99.90;;;;;;10448396;28;20059;-87
2022/06/09 05:31:55;;;;;;;18.63;13.05;;;17.70;99.90;;;;;;10455986;28;20578;-89
2022/06/09 05:36:57;;;;;;;21.95;14.10;;;17.80;99.90;;;;;;10453160;28;20375;-85
2022/06/09 05:47:20;;;;;;;17.08;11.05;;;18.10;99.90;;;;;;10451591;28;20044;-86
2022/06/09 05:52:27;;;;;;;21.77;14.18;;;18.20;99.90;;;;;;10454148;28;20494;-90
2022/06/09 05:57:27;;;;;;;29.83;16.55;;;18.40;99.90;;;;;;10482611;28;20426;-86
2022/06/09 06:02:28;;;;;;;29.85;18.80;;;18.40;99.90;;;;;;10460367;28;20041;-85
2022/06/09 06:07:28;;;;;;;30.30;18.88;;;18.60;99.90;;;;;;10446289;28;20531;-87
2022/06/09 06:12:29;;;;;;;24.67;16.85;;;18.70;99.90;;;;;;10451139;28;20029;-89
2022/06/09 06:17:30;;;;;;;32.50;20.92;;;19.00;99.90;;;;;;10467469;28;20033;-87
2022/06/09 06:22:30;;;;;;;35.05;20.30;;;19.30;99.90;;;;;;10445304;28;20158;-85
2022/06/09 06:27:31;;;;;;;36.97;23.55;;;19.40;99.90;;;;;;10460631;28;20093;-87
2022/06/09 06:32:31;;;;;;;36.50;22.83;;;19.50;99.90;;;;;;10467360;28;20033;-87
2022/06/09 06:37:33;;;;;;;46.10;25.77;;;19.60;99.90;;;;;;10447412;28;20035;-85
2022/06/09 06:42:34;;;;;;;44.42;25.98;;;19.60;99.90;;;;;;10445939;28;20871;-85
2022/06/09 06:47:34;;;;;;;39.35;25.30;;;19.80;99.90;;;;;;10452619;28;20120;-87
2022/06/09 06:52:35;;;;;;;36.70;25.75;;;20.30;99.90;;;;;;10444188;28;20037;-86
2022/06/09 06:57:36;;;;;;;40.22;26.25;;;20.60;99.90;;;;;;10445587;28;20051;-86
2022/06/09 07:02:36;;;;;;;32.58;22.95;;;20.90;99.90;;;;;;10447243;28;20025;-85
2022/06/09 07:07:40;;;;;;;38.00;26.25;;;21.20;99.90;;;;;;10459957;28;20472;-88
2022/06/09 07:12:41;;;;;;;42.10;28.73;;;22.00;99.90;;;;;;10478363;28;20021;-88
2022/06/09 07:17:42;;;;;;;38.67;27.08;;;22.10;99.90;;;;;;10475368;28;20029;-85
2022/06/09 07:22:44;;;;;;;44.75;29.67;;;22.00;99.90;;;;;;10450898;28;20583;-85
2022/06/09 07:27:45;;;;;;;37.10;26.75;;;21.70;99.90;;;;;;10454185;28;20121;-87
2022/06/09 07:32:46;;;;;;;41.10;29.45;;;21.60;99.90;;;;;;10452667;28;20104;-87
2022/06/09 07:37:46;;;;;;;36.22;27.42;;;21.60;99.90;;;;;;10472344;28;20029;-87
2022/06/09 07:42:48;;;;;;;39.35;28.33;;;21.50;99.90;;;;;;10457865;28;20036;-87
2022/06/09 07:47:49;;;;;;;41.50;29.05;;;21.90;99.90;;;;;;10457031;28;20036;-85
2022/06/09 07:52:51;;;;;;;41.88;29.50;;;22.10;99.90;;;;;;10450813;28;20020;-85
2022/06/09 07:57:53;;;;;;;35.33;27.20;;;22.20;99.90;;;;;;10452030;28;20040;-85
2022/06/09 08:02:55;;;;;;;35.65;26.98;;;22.60;99.90;;;;;;10453869;28;20522;-85
2022/06/09 08:07:56;;;;;;;37.60;27.50;;;23.10;99.90;;;;;;10453823;28;20036;-85
2022/06/09 08:12:59;;;;;;;31.30;24.98;;;23.20;99.90;;;;;;10464619;28;20024;-86
2022/06/09 08:18:01;;;;;;;33.13;25.73;;;23.70;99.90;;;;;;10468276;28;20040;-85
2022/06/09 08:23:15;;;;;;;31.80;24.75;;;24.00;99.90;;;;;;10455186;28;20076;-84
2022/06/09 08:28:18;;;;;;;33.93;24.93;;;23.70;99.90;;;;;;10456863;28;20060;-84
2022/06/09 08:33:21;;;;;;;31.08;23.27;;;23.60;99.90;;;;;;10455949;28;20021;-84
2022/06/09 08:38:22;;;;;;;32.70;24.40;;;23.90;99.90;;;;;;10455227;28;20468;-86
2022/06/09 08:43:47;;;;;;;29.75;23.95;;;24.40;99.90;;;;;;10449644;28;20104;-85
2022/06/09 08:48:50;;;;;;;29.47;24.53;;;24.60;99.90;;;;;;10463596;28;20036;-86
2022/06/09 08:54:04;;;;;;;28.80;24.17;;;24.90;99.90;;;;;;10448066;28;20060;-87
2022/06/09 08:59:15;;;;;;;29.88;23.95;;;24.50;99.90;;;;;;10453521;28;20028;-89
2022/06/09 09:04:18;;;;;;;27.75;22.55;;;24.00;99.90;;;;;;10460800;28;20040;-85
2022/06/09 09:09:27;;;;;;;29.00;23.40;;;23.60;99.90;;;;;;10476893;28;20039;-87
2022/06/09 09:14:40;;;;;;;31.50;24.05;;;23.50;99.90;;;;;;10458665;28;20033;-87
2022/06/09 09:19:54;;;;;;;33.22;25.92;;;23.30;99.90;;;;;;10452017;28;20056;-86
2022/06/09 09:25:03;;;;;;;30.88;24.92;;;22.90;99.90;;;;;;10449223;28;20036;-85
2022/06/09 09:30:21;;;;;;;30.85;25.27;;;22.80;99.90;;;;;;10448845;28;20035;-85
2022/06/09 09:35:38;;;;;;;31.35;24.73;;;22.80;99.90;;;;;;10462434;28;20017;-85
2022/06/09 09:40:43;;;;;;;29.05;23.65;;;23.70;99.90;;;;;;10447178;28;20039;-89
2022/06/09 09:45:55;;;;;;;28.38;24.00;;;24.30;99.90;;;;;;10473803;28;20090;-85
2022/06/09 09:51:11;;;;;;;26.05;22.75;;;24.80;99.90;;;;;;10466743;28;20028;-85
2022/06/09 09:56:14;;;;;;;24.70;22.02;;;25.50;99.90;;;;;;10458458;28;20072;-84
2022/06/09 10:01:21;;;;;;;28.65;23.90;;;25.60;99.90;;;;;;10445369;28;20056;-86
2022/06/09 10:11:55;;;;;;;23.48;20.90;;;25.70;99.90;;;;;;10448707;28;20044;-88
2022/06/09 10:16:57;;;;;;;27.50;19.60;;;26.20;99.90;;;;;;10461732;28;20106;-85
2022/06/09 10:22:01;;;;;;;27.55;22.08;;;26.50;99.90;;;;;;10460142;28;20139;-87
2022/06/09 10:27:03;;;;;;;23.38;19.20;;;26.80;99.90;;;;;;10445798;28;20467;-85
2022/06/09 10:32:37;;;;;;;21.70;18.33;;;27.30;99.90;;;;;;10446141;28;20025;-85
2022/06/09 10:38:02;;;;;;;21.30;19.02;;;27.30;99.90;;;;;;10443800;28;20392;-87
2022/06/09 10:43:20;;;;;;;21.08;18.00;;;26.90;99.90;;;;;;10446567;28;20673;-83
2022/06/09 10:59:58;;;;;;;22.67;19.02;;;24.80;99.90;;;;;;10464522;28;20040;-86
2022/06/09 11:04:59;;;;;;;20.25;17.55;;;24.80;99.90;;;;;;10466967;28;20064;-85
2022/06/09 11:10:34;;;;;;;18.95;16.05;;;25.60;99.90;;;;;;10469929;28;20044;-85
2022/06/09 11:16:06;;;;;;;17.90;15.85;;;26.40;99.90;;;;;;10468500;28;20037;-85
2022/06/09 11:21:21;;;;;;;17.30;15.35;;;27.00;99.90;;;;;;10479308;28;20075;-84
2022/06/09 11:26:46;;;;;;;18.88;15.32;;;26.40;99.90;;;;;;10452725;28;20039;-83
2022/06/09 11:32:41;;;;;;;18.65;16.27;;;26.60;99.90;;;;;;10451881;28;20652;-84
2022/06/09 11:38:18;;;;;;;20.80;16.00;;;26.80;99.90;;;;;;10446932;28;20056;-84
2022/06/09 11:43:48;;;;;;;17.38;15.30;;;26.60;99.90;;;;;;10464622;28;20502;-84
2022/06/09 11:48:53;;;;;;;19.85;16.35;;;25.90;99.90;;;;;;10483084;28;20108;-84
2022/06/09 11:54:01;;;;;;;20.25;17.25;;;25.40;99.90;;;;;;10463818;28;20060;-86
2022/06/09 11:59:23;;;;;;;19.55;16.33;;;25.10;99.90;;;;;;10462576;28;20475;-84
2022/06/09 12:04:24;;;;;;;17.52;15.57;;;25.10;99.90;;;;;;10477795;28;20029;-84
2022/06/09 12:09:42;;;;;;;21.13;17.02;;;25.20;99.90;;;;;;10470461;28;20031;-84
2022/06/09 12:14:43;;;;;;;20.60;16.23;;;25.30;99.90;;;;;;10467434;28;20084;-85
2022/06/09 12:19:57;;;;;;;21.10;17.00;;;25.20;99.90;;;;;;10456002;28;20060;-84
2022/06/09 12:25:24;;;;;;;18.95;16.15;;;25.00;99.90;;;;;;10468539;28;20474;-84
2022/06/09 12:30:32;;;;;;;18.55;16.33;;;25.00;99.90;;;;;;10450618;28;20064;-84
2022/06/09 12:35:35;;;;;;;19.88;16.25;;;25.30;99.90;;;;;;10452899;28;20017;-84
2022/06/09 12:40:43;;;;;;;17.35;14.80;;;25.50;99.90;;;;;;10456696;28;20040;-85
2022/06/09 12:46:00;;;;;;;18.60;15.70;;;25.80;99.90;;;;;;10461985;28;20449;-84
2022/06/09 12:51:04;;;;;;;17.58;14.80;;;26.30;99.90;;;;;;10458963;28;20476;-86
2022/06/09 12:56:34;;;;;;;15.50;13.63;;;27.00;99.90;;;;;;10460212;28;20028;-84
2022/06/09 13:01:35;;;;;;;18.65;16.13;;;27.30;99.90;;;;;;10458847;28;20484;-85
2022/06/09 13:06:39;;;;;;;18.65;14.88;;;27.20;99.90;;;;;;10454827;28;20045;-85
2022/06/09 13:17:13;;;;;;;27.38;18.92;;;27.50;95.40;;;;;;10450845;28;20159;-85
2022/06/09 13:22:15;;;;;;;13.32;11.88;;;27.60;99.90;;;;;;10459427;28;20052;-87
2022/06/09 13:27:21;;;;;;;15.30;12.75;;;27.80;99.90;;;;;;10445091;28;20065;-87
2022/06/09 13:32:36;;;;;;;26.20;21.73;;;27.90;96.60;;;;;;10447141;28;20032;-84
2022/06/09 13:37:41;;;;;;;18.50;14.82;;;28.00;93.40;;;;;;10447399;28;20017;-87
2022/06/09 13:42:57;;;;;;;19.63;16.17;;;27.60;97.10;;;;;;10447019;28;20119;-87
2022/06/09 13:48:06;;;;;;;19.67;15.18;;;27.20;96.30;;;;;;10448182;28;20031;-85
2022/06/09 13:53:14;;;;;;;17.88;14.98;;;27.30;94.70;;;;;;10449460;28;20383;-86
2022/06/09 13:58:14;;;;;;;80.80;55.78;;;27.30;94.70;;;;;;10447390;28;20038;-89
2022/06/09 14:03:21;;;;;;;17.15;14.23;;;27.70;94.40;;;;;;10453685;28;20738;-85
2022/06/09 14:08:25;;;;;;;19.83;17.55;;;28.00;91.40;;;;;;10464992;28;20450;-89
2022/06/09 14:13:26;;;;;;;28.57;21.30;;;27.80;90.70;;;;;;10456444;28;20415;-85
2022/06/09 14:18:30;;;;;;;14.90;13.13;;;27.50;90.30;;;;;;10449445;28;20295;-86
2022/06/09 14:23:34;;;;;;;18.85;14.55;;;27.10;90.80;;;;;;10468880;28;20079;-86
2022/06/09 14:28:35;;;;;;;15.07;13.32;;;26.80;91.70;;;;;;10455819;28;20040;-84
2022/06/09 14:34:17;;;;;;;15.30;11.80;;;26.70;92.50;;;;;;10462419;28;20096;-85
2022/06/09 14:39:20;;;;;;;37.15;19.27;;;26.50;90.60;;;;;;10450749;28;20480;-87
2022/06/09 14:44:20;;;;;;;13.13;10.30;;;24.70;99.90;;;;;;10463903;28;20128;-90
2022/06/09 14:49:22;;;;;;;13.63;11.88;;;20.60;99.90;;;;;;10470719;28;20468;-87
2022/06/09 14:54:23;;;;;;;26.73;19.65;;;18.00;99.90;;;;;;10465138;28;20079;-88
2022/06/09 14:59:24;;;;;;;38.08;25.83;;;17.40;99.90;;;;;;10457313;28;20075;-86
2022/06/09 15:04:24;;;;;;;67.32;39.78;;;17.40;99.90;;;;;;10464902;28;20139;-90
2022/06/09 15:09:26;;;;;;;37.42;26.20;;;17.70;99.90;;;;;;10469129;28;20032;-88
2022/06/09 15:27:31;;;;;;;13.98;8.35;;;18.00;99.90;;;;;;10494767;27;20890;-87
2022/06/09 15:32:32;;;;;;;19.77;9.13;;;17.20;99.90;;;;;;10474276;28;20036;-87
2022/06/09 15:37:32;;;;;;;22.55;11.63;;;16.90;99.90;;;;;;10490561;28;20021;-85
2022/06/09 15:42:33;;;;;;;30.02;14.85;;;16.70;99.90;;;;;;10480332;28;20079;-86
2022/06/09 15:47:34;;;;;;;25.38;13.75;;;16.50;99.90;;;;;;10476617;28;20541;-88
2022/06/09 15:52:35;;;;;;;17.30;10.70;;;16.30;99.90;;;;;;10486109;28;20025;-87
2022/06/09 15:57:36;;;;;;;13.15;7.63;;;16.10;99.90;;;;;;10483007;28;20029;-84
2022/06/09 16:02:36;;;;;;;12.00;7.35;;;16.10;99.90;;;;;;10491220;28;20024;-87
2022/06/09 16:07:38;;;;;;;14.07;9.20;;;16.20;99.90;;;;;;10466880;28;20029;-85
2022/06/09 16:12:39;;;;;;;16.08;10.48;;;16.30;99.90;;;;;;10481541;28;20041;-88
2022/06/09 16:17:40;;;;;;;13.23;9.88;;;16.50;99.90;;;;;;10474441;28;20028;-85
2022/06/09 16:22:40;;;;;;;15.40;10.20;;;16.50;99.90;;;;;;10462691;28;20029;-85
2022/06/09 16:27:41;;;;;;;8.45;6.50;;;16.50;99.90;;;;;;10436977;28;20037;-85
2022/06/09 16:32:42;;;;;;;7.18;5.75;;;16.50;99.90;;;;;;10439029;28;20532;-85
2022/06/09 16:37:42;;;;;;;10.75;7.45;;;16.50;99.90;;;;;;10439328;28;20480;-86
2022/06/09 16:42:44;;;;;;;16.60;10.27;;;16.50;99.90;;;;;;10443521;28;20032;-88
2022/06/09 16:47:44;;;;;;;25.88;14.65;;;16.60;99.90;;;;;;10436956;28;20078;-84
2022/06/09 16:52:46;;;;;;;15.48;11.23;;;16.60;99.90;;;;;;10437808;28;20456;-87
2022/06/09 16:57:47;;;;;;;14.43;10.50;;;16.60;99.90;;;;;;10434128;28;20060;-86
2022/06/09 17:02:48;;;;;;;14.20;10.30;;;16.50;99.90;;;;;;10439776;28;20021;-86
2022/06/09 17:07:53;;;;;;;21.15;13.80;;;16.50;99.90;;;;;;10440316;28;20112;-86
2022/06/09 17:12:54;;;;;;;14.98;11.60;;;16.50;99.90;;;;;;10443632;28;20407;-87
2022/06/09 17:17:55;;;;;;;15.18;10.98;;;16.50;99.90;;;;;;10434751;28;20056;-84
2022/06/09 17:22:55;;;;;;;29.40;16.80;;;16.50;99.90;;;;;;10439510;28;20467;-87
2022/06/09 17:27:56;;;;;;;13.52;10.27;;;16.50;99.90;;;;;;10436372;28;20032;-85
2022/06/09 17:33:01;;;;;;;13.73;10.38;;;16.60;99.90;;;;;;10430834;28;20040;-85
2022/06/09 17:38:02;;;;;;;14.20;10.57;;;16.50;99.90;;;;;;10433820;28;20030;-85
2022/06/09 17:43:03;;;;;;;12.35;9.63;;;16.50;99.90;;;;;;10447948;28;20016;-84
2022/06/09 17:48:06;;;;;;;19.83;12.93;;;16.40;99.90;;;;;;10442472;28;20068;-87
2022/06/09 17:53:07;;;;;;;18.95;11.15;;;16.40;99.90;;;;;;10422236;28;20039;-84
2022/06/09 17:58:10;;;;;;;14.18;9.82;;;16.50;99.90;;;;;;10436942;28;20039;-85
2022/06/09 18:03:12;;;;;;;16.95;10.68;;;16.60;99.90;;;;;;10431496;28;20550;-87
2022/06/09 18:08:16;;;;;;;18.48;10.77;;;16.60;99.90;;;;;;10430989;28;20025;-86
2022/06/09 18:13:17;;;;;;;13.95;8.95;;;16.50;99.90;;;;;;10444616;28;20131;-86
2022/06/09 18:18:21;;;;;;;13.43;8.98;;;16.50;99.90;;;;;;10439324;28;20599;-86
2022/06/09 18:23:24;;;;;;;12.35;8.00;;;16.50;99.90;;;;;;10440960;28;20074;-89
2022/06/09 18:28:24;;;;;;;11.13;7.82;;;16.50;99.90;;;;;;10428793;28;20067;-86
2022/06/09 18:33:25;;;;;;;11.73;7.57;;;16.50;99.90;;;;;;10431355;28;20148;-86
2022/06/09 18:38:27;;;;;;;8.93;6.45;;;16.40;99.90;;;;;;10428942;28;20024;-87
2022/06/09 18:43:27;;;;;;;11.70;7.28;;;16.40;99.90;;;;;;10429641;28;20113;-85
2022/06/09 18:48:31;;;;;;;15.35;9.00;;;16.40;99.90;;;;;;10432164;28;20151;-85
2022/06/09 18:53:33;;;;;;;8.65;6.20;;;16.40;99.90;;;;;;10422321;28;20133;-88
2022/06/09 18:58:34;;;;;;;12.30;7.80;;;16.30;99.90;;;;;;10435324;28;20037;-86
2022/06/09 19:03:35;;;;;;;17.55;9.30;;;16.30;99.90;;;;;;10414801;23;20057;-87
2022/06/09 19:08:38;;;;;;;22.17;10.70;;;16.30;99.90;;;;;;10387169;28;20036;-84
2022/06/09 19:13:38;;;;;;;16.63;8.98;;;16.30;99.90;;;;;;10379080;23;20045;-87
2022/06/09 19:18:39;;;;;;;14.88;8.82;;;16.40;99.90;;;;;;10447445;28;20056;-86
2022/06/09 19:23:42;;;;;;;19.70;9.07;;;16.30;99.90;;;;;;10443890;28;20710;-85
2022/06/09 19:28:44;;;;;;;9.82;6.55;;;16.30;99.90;;;;;;10442191;28;20072;-84
2022/06/09 19:33:45;;;;;;;12.93;7.53;;;16.20;99.90;;;;;;10442799;23;20061;-84
2022/06/09 19:38:45;;;;;;;11.55;7.05;;;16.10;99.90;;;;;;10403604;28;20029;-89
2022/06/09 19:43:46;;;;;;;11.32;7.05;;;16.00;99.90;;;;;;10404801;28;20029;-84
2022/06/09 19:48:50;;;;;;;19.15;8.75;;;16.00;99.90;;;;;;10404717;28;20033;-83
2022/06/09 19:53:54;;;;;;;19.45;8.75;;;16.00;99.90;;;;;;10402865;28;20132;-84
2022/06/09 19:58:57;;;;;;;14.00;8.93;;;16.00;99.90;;;;;;10402985;28;20354;-88
2022/06/09 20:03:58;;;;;;;22.77;11.35;;;16.00;99.90;;;;;;10407220;28;20109;-86
2022/06/09 20:09:01;;;;;;;13.90;8.55;;;16.10;99.90;;;;;;10412662;28;20029;-85
2022/06/09 20:14:01;;;;;;;17.77;11.15;;;16.10;99.90;;;;;;10407695;28;20131;-84
2022/06/09 20:19:02;;;;;;;18.45;11.50;;;16.00;99.90;;;;;;10402289;28;20385;-84
2022/06/09 20:24:04;;;;;;;25.63;12.95;;;16.00;99.90;;;;;;10408393;28;20035;-82
2022/06/09 20:29:04;;;;;;;28.10;13.32;;;16.00;99.90;;;;;;10402748;28;20500;-82
2022/06/09 20:34:05;;;;;;;25.48;13.93;;;16.00;99.90;;;;;;10430737;23;20139;-83
2022/06/09 20:39:05;;;;;;;37.13;19.05;;;16.00;99.90;;;;;;10411259;28;20476;-82
2022/06/09 20:44:06;;;;;;;33.97;19.20;;;16.00;99.90;;;;;;10410928;28;20076;-85
2022/06/09 20:49:15;;;;;;;41.65;20.55;;;16.00;99.90;;;;;;10410674;28;20026;-87
2022/06/09 20:54:16;;;;;;;39.95;20.20;;;16.00;99.90;;;;;;10410294;28;20488;-86
2022/06/09 20:59:16;;;;;;;37.95;19.67;;;15.90;99.90;;;;;;10411801;28;20033;-86
2022/06/09 21:04:17;;;;;;;40.85;21.02;;;15.90;99.90;;;;;;10410369;28;20029;-85
2022/06/09 21:09:20;;;;;;;53.95;26.35;;;15.90;99.90;;;;;;10408342;28;20167;-83
2022/06/09 21:19:40;;;;;;;55.00;26.15;;;15.90;99.90;;;;;;10402585;28;20042;-82
2022/06/09 21:24:40;;;;;;;63.85;30.98;;;15.90;99.90;;;;;;10403798;28;20392;-83
2022/06/09 21:29:41;;;;;;;90.55;34.85;;;15.90;99.90;;;;;;10405538;28;20546;-83
2022/06/09 21:34:42;;;;;;;83.07;35.33;;;15.90;99.90;;;;;;10395615;28;20632;-86
2022/06/09 21:39:43;;;;;;;70.75;31.42;;;15.90;99.90;;;;;;10405146;28;20041;-84
2022/06/09 21:44:44;;;;;;;71.05;32.78;;;15.90;99.90;;;;;;10408590;28;20033;-83
2022/06/09 21:49:46;;;;;;;54.42;27.30;;;15.90;99.90;;;;;;10392036;28;20033;-83
2022/06/09 21:54:47;;;;;;;50.47;25.33;;;15.90;99.90;;;;;;10402746;28;20038;-89
2022/06/09 21:59:48;;;;;;;49.88;26.55;;;15.90;99.90;;;;;;10395353;28;20041;-83
2022/06/09 22:04:48;;;;;;;44.20;23.52;;;15.90;99.90;;;;;;10400897;28;20037;-87
2022/06/09 22:09:49;;;;;;;51.70;24.25;;;15.90;99.90;;;;;;10406206;28;20065;-83
2022/06/09 22:14:49;;;;;;;43.83;22.48;;;15.90;99.90;;;;;;10403772;28;20041;-84
2022/06/09 22:19:50;;;;;;;37.63;20.30;;;15.90;99.90;;;;;;10395160;28;20033;-88
2022/06/09 22:24:51;;;;;;;34.90;19.90;;;15.90;99.90;;;;;;10401017;28;20025;-86
2022/06/09 22:29:51;;;;;;;40.20;21.20;;;15.90;99.90;;;;;;10399994;28;20041;-84
2022/06/09 22:34:52;;;;;;;33.15;18.70;;;15.90;99.90;;;;;;10402739;28;20053;-85
2022/06/09 22:39:52;;;;;;;38.55;20.70;;;15.90;99.90;;;;;;10393545;28;20025;-84
2022/06/09 22:44:53;;;;;;;41.67;24.13;;;16.00;99.90;;;;;;10400878;28;20026;-87
2022/06/09 22:49:54;;;;;;;47.08;23.98;;;15.90;99.90;;;;;;10400066;28;20095;-85
2022/06/09 23:00:25;;;;;;;43.30;23.90;;;16.00;99.90;;;;;;10393733;28;20053;-84
2022/06/09 23:05:26;;;;;;;39.13;21.92;;;16.00;99.90;;;;;;10392237;28;20093;-84
2022/06/09 23:10:27;;;;;;;45.90;24.25;;;16.00;99.90;;;;;;10404032;28;20120;-84
2022/06/09 23:15:29;;;;;;;42.20;22.73;;;16.00;99.90;;;;;;10399517;28;20041;-84
2022/06/09 23:20:33;;;;;;;30.20;18.55;;;16.00;99.90;;;;;;10399934;28;20033;-83
2022/06/09 23:25:35;;;;;;;31.87;17.93;;;16.00;99.90;;;;;;10393702;28;20116;-84
2022/06/09 23:30:36;;;;;;;30.23;17.80;;;15.90;99.90;;;;;;10394776;28;20092;-86
2022/06/09 23:35:37;;;;;;;36.80;19.88;;;15.90;99.90;;;;;;10402567;28;20562;-83
2022/06/09 23:40:42;;;;;;;33.83;18.83;;;16.00;99.90;;;;;;10410407;28;20022;-83
2022/06/09 23:45:47;;;;;;;46.03;22.88;;;15.90;99.90;;;;;;10409414;28;20049;-83
2022/06/09 23:50:53;;;;;;;36.63;19.92;;;15.90;99.90;;;;;;10415707;28;20144;-86
2022/06/09 23:55:55;;;;;;;35.20;18.75;;;15.90;99.90;;;;;;10405950;28;20041;-84
